ETNL/RLG METAR and TAF weather

Enter ICAO airport designator
Station Type Date Time Source
ETNL METAR 2022/06/27 17:20 UTC NOAA

ETNL 271720Z 31012KT 9999 FEW015 SCT060 BKN160 20/19 Q1013 RETS BLU


Station Type Date Time Source
ETNL Decoded METAR 2022/06/27 17:20 UTC NOAA

Laage, Germany (ETNL) 53-55N 012-17E 46M
Jun 27, 2022 - 01:20 PM EDT / 2022.06.27 1720 UTC
Wind: from the NW (310 degrees) at 14 MPH (12 KT):0
Visibility: greater than 7 mile(s):0
Sky conditions: mostly cloudy
Temperature: 68 F (20 C)
Dew Point: 66 F (19 C)
Relative Humidity: 93%
Pressure (altimeter): 29.91 in. Hg (1013 hPa)
ob: ETNL 271720Z 31012KT 9999 FEW015 SCT060 BKN160 20/19 Q1013 RETS BLU
cycle: 17

Station Type Date Time Source
ETNL TAF 2022/04/27 02:06 UTC NOAA

TAF
AMD ETNL 270400Z 2702/2717 31007KT 9999 NSW FEW050 BY ETGL

Example: see airport list